Time;durP1;ratioP1;P1;durP2;ratioP2;P2;SDS_P1;SDS_P2;PMS_P1;PMS_P2;Temp;Humidity;BMP_temperature;BMP_pressure;BME280_temperature;BME280_humidity;BME280_pressure;Samples;Min_cycle;Max_cycle;Signal;HPM_P1;HPM_P2
2021/08/06 00:02:19;;;;;;;2.80;1.60;;;16.30;92.50;;;;;;5093860;28;20435;-66
2021/08/06 00:04:46;;;;;;;2.17;1.27;;;16.20;92.40;;;;;;5093055;28;20447;-67
2021/08/06 00:07:14;;;;;;;2.00;1.30;;;16.30;92.50;;;;;;5094028;28;20493;-66
2021/08/06 00:09:41;;;;;;;2.07;1.13;;;16.30;92.40;;;;;;5092764;28;20483;-67
2021/08/06 00:12:09;;;;;;;2.60;1.37;;;16.30;92.50;;;;;;5093882;28;20435;-67
2021/08/06 00:14:37;;;;;;;3.40;1.80;;;16.30;92.40;;;;;;5093536;28;20518;-66
2021/08/06 00:17:06;;;;;;;3.57;1.40;;;16.30;92.60;;;;;;5092618;28;20451;-67
2021/08/06 00:19:33;;;;;;;2.80;1.70;;;16.40;92.50;;;;;;5093437;28;20612;-67
2021/08/06 00:22:01;;;;;;;2.53;1.43;;;16.40;92.60;;;;;;5092724;28;21020;-67
2021/08/06 00:24:28;;;;;;;2.37;1.30;;;16.40;92.60;;;;;;5093277;28;20431;-67
2021/08/06 00:26:55;;;;;;;5.30;1.43;;;16.40;92.60;;;;;;5092547;28;20475;-67
2021/08/06 00:29:22;;;;;;;4.53;2.70;;;16.50;92.70;;;;;;5093480;28;20507;-67
2021/08/06 00:31:49;;;;;;;3.20;1.70;;;16.50;92.70;;;;;;5092084;28;20780;-67
2021/08/06 00:34:18;;;;;;;2.30;1.20;;;16.50;92.60;;;;;;5093204;28;20439;-68
2021/08/06 00:36:45;;;;;;;2.87;1.30;;;16.50;92.60;;;;;;5093101;28;20822;-67
2021/08/06 00:39:12;;;;;;;1.50;0.77;;;16.50;92.50;;;;;;5093513;28;20827;-66
2021/08/06 00:41:40;;;;;;;2.33;1.43;;;16.50;92.60;;;;;;5092800;28;20511;-66
2021/08/06 00:44:07;;;;;;;2.33;1.40;;;16.40;92.70;;;;;;5093220;28;20439;-67
2021/08/06 00:46:35;;;;;;;2.07;1.20;;;16.40;92.70;;;;;;5092928;28;20431;-67
2021/08/06 00:49:04;;;;;;;2.27;1.17;;;16.40;92.70;;;;;;5092886;28;20482;-68
2021/08/06 00:51:33;;;;;;;3.70;1.60;;;16.40;92.80;;;;;;5092734;28;20514;-67
2021/08/06 00:54:00;;;;;;;2.07;1.27;;;16.40;93.00;;;;;;5093083;28;20450;-66
2021/08/06 00:56:28;;;;;;;2.97;2.03;;;16.30;93.10;;;;;;5092079;28;20435;-66
2021/08/06 00:58:55;;;;;;;2.67;1.70;;;16.30;93.20;;;;;;5091679;28;20435;-67
2021/08/06 01:01:25;;;;;;;3.30;1.60;;;16.30;93.40;;;;;;5092534;28;20528;-67
2021/08/06 01:04:02;;;;;;;2.67;1.60;;;16.30;93.60;;;;;;5092631;28;20458;-67
2021/08/06 01:06:42;;;;;;;2.23;1.40;;;16.30;93.50;;;;;;5092517;28;20796;-67
2021/08/06 01:09:17;;;;;;;2.30;1.27;;;16.40;93.70;;;;;;5092627;28;20482;-72
2021/08/06 01:11:48;;;;;;;2.60;1.07;;;16.40;93.70;;;;;;5092559;28;20492;-67
2021/08/06 01:14:20;;;;;;;2.03;1.37;;;16.40;93.90;;;;;;5093025;28;20467;-67
2021/08/06 01:16:50;;;;;;;3.00;1.60;;;16.40;93.80;;;;;;5092354;28;20470;-66
2021/08/06 01:19:25;;;;;;;2.03;1.20;;;16.40;93.80;;;;;;5092345;28;20477;-66
2021/08/06 01:22:03;;;;;;;2.33;1.20;;;16.40;93.80;;;;;;5092048;28;20795;-67
2021/08/06 01:24:33;;;;;;;2.10;1.10;;;16.40;93.80;;;;;;5092401;28;20462;-67
2021/08/06 01:27:03;;;;;;;4.23;1.53;;;16.40;93.70;;;;;;5072441;28;20930;-67
2021/08/06 01:29:30;;;;;;;1.80;1.10;;;16.50;93.80;;;;;;5072175;28;20571;-67
2021/08/06 01:31:57;;;;;;;2.37;1.50;;;16.50;93.60;;;;;;5092452;28;20439;-72
2021/08/06 01:34:24;;;;;;;2.60;1.40;;;16.40;93.60;;;;;;5092091;28;20439;-67
2021/08/06 01:36:52;;;;;;;1.83;0.90;;;16.40;93.50;;;;;;5092620;28;20443;-67
2021/08/06 01:39:20;;;;;;;2.63;1.20;;;16.50;93.50;;;;;;5091657;28;20436;-68
2021/08/06 01:41:58;;;;;;;2.60;1.60;;;16.50;93.10;;;;;;5091839;28;20427;-67
2021/08/06 01:44:39;;;;;;;2.00;1.20;;;16.50;93.20;;;;;;5091352;28;20940;-67
2021/08/06 01:47:11;;;;;;;3.40;1.10;;;16.40;93.40;;;;;;5092344;28;20442;-67
2021/08/06 01:49:43;;;;;;;2.60;1.53;;;16.40;93.60;;;;;;5091786;28;20489;-67
2021/08/06 01:52:13;;;;;;;3.80;1.83;;;16.30;93.70;;;;;;5092276;28;20921;-67
2021/08/06 01:54:42;;;;;;;2.40;1.30;;;16.30;93.60;;;;;;5092166;28;20492;-66
2021/08/06 01:57:12;;;;;;;3.27;2.20;;;16.30;94.10;;;;;;5092298;28;20787;-67
2021/08/06 01:59:40;;;;;;;3.23;1.70;;;16.20;93.70;;;;;;5091716;28;20462;-67
2021/08/06 02:02:10;;;;;;;3.93;2.30;;;16.20;93.90;;;;;;5092207;28;20840;-67
2021/08/06 02:04:41;;;;;;;4.60;2.70;;;16.20;93.80;;;;;;5091974;28;20514;-67
2021/08/06 02:07:08;;;;;;;3.90;2.80;;;16.10;93.90;;;;;;5092170;28;20435;-67
2021/08/06 02:09:39;;;;;;;2.23;1.20;;;16.20;93.90;;;;;;5091291;28;20474;-67
2021/08/06 02:12:07;;;;;;;2.67;1.50;;;16.10;93.90;;;;;;5092410;28;20445;-67
2021/08/06 02:14:35;;;;;;;2.83;1.53;;;16.10;94.10;;;;;;5092006;28;20442;-67
2021/08/06 02:17:09;;;;;;;3.03;2.00;;;16.00;94.30;;;;;;5092219;28;20530;-66
2021/08/06 02:19:38;;;;;;;3.37;2.10;;;16.00;94.40;;;;;;5091712;28;20435;-67
2021/08/06 02:22:07;;;;;;;5.07;1.60;;;16.00;94.50;;;;;;5092086;28;20951;-67
2021/08/06 02:24:35;;;;;;;4.60;2.20;;;15.90;94.60;;;;;;5091136;28;20485;-67
2021/08/06 02:27:07;;;;;;;2.33;1.70;;;15.90;94.50;;;;;;5091626;28;20444;-67
2021/08/06 02:29:35;;;;;;;2.70;1.90;;;15.90;94.60;;;;;;5091524;28;20478;-66
2021/08/06 02:32:05;;;;;;;2.73;1.97;;;15.90;94.90;;;;;;5092027;28;20468;-67
2021/08/06 02:34:32;;;;;;;2.87;1.80;;;15.90;95.00;;;;;;5095012;28;20430;-66
2021/08/06 02:37:00;;;;;;;3.33;1.83;;;15.80;95.10;;;;;;5095659;28;20443;-67
2021/08/06 02:39:29;;;;;;;3.00;2.10;;;15.80;95.20;;;;;;5095249;28;20435;-67
2021/08/06 02:41:57;;;;;;;4.20;2.40;;;15.90;95.40;;;;;;5095456;28;20517;-67
2021/08/06 02:44:24;;;;;;;3.80;2.60;;;15.90;95.20;;;;;;5095161;28;20956;-67
2021/08/06 02:46:52;;;;;;;4.53;3.00;;;15.90;95.20;;;;;;5095196;28;20831;-67
2021/08/06 02:49:21;;;;;;;3.80;2.50;;;15.90;95.20;;;;;;5094730;28;20974;-67
2021/08/06 02:51:48;;;;;;;3.60;2.77;;;16.00;95.30;;;;;;5095315;28;20464;-66
2021/08/06 02:54:15;;;;;;;2.33;1.80;;;15.90;95.20;;;;;;5095200;28;20439;-69
2021/08/06 02:56:42;;;;;;;4.87;1.80;;;15.90;95.20;;;;;;5095043;28;20832;-67
2021/08/06 02:59:09;;;;;;;2.33;1.33;;;15.80;95.30;;;;;;5095330;28;20467;-67
2021/08/06 03:01:36;;;;;;;2.50;1.50;;;15.80;95.30;;;;;;5094778;28;20446;-67
2021/08/06 03:04:03;;;;;;;3.10;1.50;;;15.80;95.20;;;;;;5095027;28;20516;-66
2021/08/06 03:06:32;;;;;;;2.40;1.70;;;15.80;95.40;;;;;;5094621;28;20431;-68
2021/08/06 03:08:59;;;;;;;4.00;1.70;;;15.80;95.40;;;;;;5094624;28;20443;-67
2021/08/06 03:11:26;;;;;;;2.60;1.87;;;15.70;95.50;;;;;;5094454;28;20470;-67
2021/08/06 03:13:53;;;;;;;2.43;1.70;;;15.70;95.50;;;;;;5094772;28;20443;-67
2021/08/06 03:16:21;;;;;;;3.43;2.10;;;15.70;95.60;;;;;;5093852;28;20784;-67
2021/08/06 03:18:48;;;;;;;4.30;1.90;;;15.70;95.60;;;;;;5094491;28;20920;-66
2021/08/06 03:21:15;;;;;;;3.07;1.80;;;15.70;95.70;;;;;;5094485;28;20435;-67
2021/08/06 03:23:47;;;;;;;3.87;1.70;;;15.70;95.80;;;;;;5094974;28;20477;-67
2021/08/06 03:26:16;;;;;;;3.90;2.50;;;15.60;95.60;;;;;;5094020;28;20463;-66
2021/08/06 03:28:43;;;;;;;5.60;2.93;;;15.70;95.70;;;;;;5094559;28;20435;-67
2021/08/06 03:31:11;;;;;;;4.23;2.33;;;15.60;95.60;;;;;;5094557;28;20819;-66
2021/08/06 03:33:38;;;;;;;2.70;2.10;;;15.60;95.90;;;;;;5094503;28;20439;-67
2021/08/06 03:36:07;;;;;;;3.20;1.73;;;15.70;96.00;;;;;;5093985;28;20435;-67
2021/08/06 03:38:34;;;;;;;2.37;1.67;;;15.70;95.70;;;;;;5094159;28;20423;-67
2021/08/06 03:41:02;;;;;;;3.00;1.77;;;15.70;95.80;;;;;;5094119;28;20899;-67
2021/08/06 03:43:30;;;;;;;3.00;1.63;;;15.70;95.70;;;;;;5094308;28;20515;-67
2021/08/06 03:45:57;;;;;;;2.67;1.70;;;15.80;95.80;;;;;;5093702;28;20439;-67
2021/08/06 03:48:24;;;;;;;6.53;1.87;;;15.80;95.80;;;;;;5093846;28;20905;-66
2021/08/06 03:50:51;;;;;;;2.20;1.40;;;15.90;95.70;;;;;;5094075;28;20536;-68
2021/08/06 03:53:18;;;;;;;3.80;1.57;;;15.90;95.70;;;;;;5093765;28;20442;-67
2021/08/06 03:55:46;;;;;;;2.27;1.30;;;15.90;95.50;;;;;;5094085;28;20525;-67
2021/08/06 03:58:14;;;;;;;2.93;1.43;;;15.80;95.40;;;;;;5093850;28;20474;-67
2021/08/06 04:00:41;;;;;;;3.27;1.90;;;15.80;95.60;;;;;;5093778;28;20484;-66
2021/08/06 04:03:09;;;;;;;3.00;1.80;;;15.80;95.70;;;;;;5093390;28;20469;-67
2021/08/06 04:05:37;;;;;;;3.40;1.50;;;15.80;95.80;;;;;;5093797;28;20496;-66
2021/08/06 04:08:08;;;;;;;2.70;2.13;;;15.80;95.90;;;;;;5092530;28;20929;-69
2021/08/06 04:10:36;;;;;;;3.10;2.23;;;15.80;95.90;;;;;;5094132;28;20475;-67
2021/08/06 04:13:04;;;;;;;2.40;1.70;;;15.80;96.00;;;;;;5093559;28;20438;-68
2021/08/06 04:15:32;;;;;;;2.33;1.70;;;15.90;96.00;;;;;;5094086;28;20895;-67
2021/08/06 04:18:00;;;;;;;4.20;1.87;;;15.80;95.80;;;;;;5093362;28;20447;-66
2021/08/06 04:20:29;;;;;;;2.73;1.30;;;15.90;96.00;;;;;;5094086;28;20431;-67
2021/08/06 04:22:56;;;;;;;3.00;1.63;;;15.90;96.20;;;;;;5092895;28;21012;-67
2021/08/06 04:25:23;;;;;;;2.10;1.33;;;15.90;95.80;;;;;;5092909;28;20483;-67
2021/08/06 04:27:50;;;;;;;4.30;2.30;;;15.90;95.90;;;;;;5093637;28;20461;-67
2021/08/06 04:30:18;;;;;;;11.37;1.83;;;15.90;95.50;;;;;;5093326;28;21061;-66
2021/08/06 04:32:46;;;;;;;2.80;1.50;;;15.90;96.10;;;;;;5093631;28;20439;-67
2021/08/06 04:35:13;;;;;;;3.23;1.87;;;15.90;95.80;;;;;;5092914;28;20496;-67
2021/08/06 04:37:48;;;;;;;3.47;1.43;;;15.90;96.00;;;;;;5093643;28;20453;-67
2021/08/06 04:40:15;;;;;;;3.80;2.03;;;15.90;96.00;;;;;;5093189;28;20438;-67
2021/08/06 04:42:43;;;;;;;2.40;1.80;;;16.00;95.90;;;;;;5093693;28;20530;-67
2021/08/06 04:45:11;;;;;;;4.33;1.70;;;15.90;95.60;;;;;;5092416;28;20427;-67
2021/08/06 04:47:43;;;;;;;6.73;1.63;;;15.90;95.60;;;;;;5093346;28;20476;-67
2021/08/06 04:50:13;;;;;;;3.40;1.30;;;15.90;95.50;;;;;;5092883;28;20471;-66
2021/08/06 04:52:41;;;;;;;2.37;1.60;;;15.90;95.80;;;;;;5093317;28;20529;-67
2021/08/06 04:55:09;;;;;;;2.50;1.47;;;15.90;95.90;;;;;;5092356;28;20459;-67
2021/08/06 04:57:37;;;;;;;2.80;1.20;;;15.90;95.90;;;;;;5093022;28;20447;-67
2021/08/06 05:00:05;;;;;;;2.83;1.57;;;16.00;95.90;;;;;;5092851;28;20493;-67
2021/08/06 05:02:32;;;;;;;2.30;1.57;;;16.00;95.90;;;;;;5092766;28;20435;-67
2021/08/06 05:05:01;;;;;;;3.43;1.50;;;16.00;95.80;;;;;;5092938;28;20801;-67
2021/08/06 05:07:29;;;;;;;2.60;1.73;;;16.00;95.80;;;;;;5092593;28;20435;-67
2021/08/06 05:09:57;;;;;;;2.50;1.40;;;16.10;95.90;;;;;;5092761;28;20510;-66
2021/08/06 05:12:24;;;;;;;2.60;1.90;;;16.20;95.30;;;;;;5091441;28;20427;-67
2021/08/06 05:14:51;;;;;;;4.20;2.10;;;16.20;95.60;;;;;;5092534;28;20473;-67
2021/08/06 05:17:19;;;;;;;2.60;1.60;;;16.20;95.80;;;;;;5092727;28;20445;-67
2021/08/06 05:19:46;;;;;;;3.40;2.03;;;16.30;95.80;;;;;;5093154;28;20488;-67
2021/08/06 05:22:13;;;;;;;2.60;1.70;;;16.30;95.80;;;;;;5092325;28;20438;-67
2021/08/06 05:24:41;;;;;;;3.77;1.30;;;16.40;95.50;;;;;;5089583;28;20435;-66
2021/08/06 05:27:09;;;;;;;2.37;1.40;;;16.50;95.50;;;;;;5090755;28;20511;-66
2021/08/06 05:29:36;;;;;;;3.00;2.00;;;16.40;95.10;;;;;;5091175;28;20940;-67
2021/08/06 05:32:03;;;;;;;4.00;1.70;;;16.50;95.00;;;;;;5090510;28;20439;-67
2021/08/06 05:34:30;;;;;;;2.70;1.50;;;16.50;95.10;;;;;;5090931;28;20439;-67
2021/08/06 05:36:57;;;;;;;4.43;1.77;;;16.60;95.20;;;;;;5090716;28;20454;-67
2021/08/06 05:39:24;;;;;;;3.20;1.57;;;16.60;95.00;;;;;;5091178;28;20438;-67
2021/08/06 05:41:53;;;;;;;3.20;1.60;;;16.70;94.90;;;;;;5090643;28;20865;-68
2021/08/06 05:44:20;;;;;;;5.20;1.67;;;16.70;95.00;;;;;;5090789;28;20466;-67
2021/08/06 05:46:47;;;;;;;2.67;1.63;;;16.80;94.50;;;;;;5090742;28;20433;-68
2021/08/06 05:49:14;;;;;;;2.97;1.63;;;16.80;94.50;;;;;;5090948;28;20999;-67
2021/08/06 05:51:41;;;;;;;3.40;1.70;;;16.90;94.80;;;;;;5090579;28;20544;-67
2021/08/06 05:54:08;;;;;;;2.67;1.40;;;16.90;94.20;;;;;;5090646;28;20442;-67
2021/08/06 05:56:36;;;;;;;4.00;1.50;;;16.90;94.20;;;;;;5090818;28;20800;-67
2021/08/06 05:59:04;;;;;;;3.30;1.60;;;17.00;93.90;;;;;;5090974;28;20450;-67
2021/08/06 06:01:31;;;;;;;6.13;2.77;;;17.10;93.70;;;;;;5090394;28;20431;-67
2021/08/06 06:03:58;;;;;;;3.50;1.70;;;17.20;93.70;;;;;;5090166;28;20467;-67
2021/08/06 06:06:25;;;;;;;6.10;1.40;;;17.30;93.90;;;;;;5090214;28;20514;-67
2021/08/06 06:08:52;;;;;;;3.87;2.00;;;17.50;93.90;;;;;;5093602;28;20442;-67
2021/08/06 06:11:19;;;;;;;2.70;1.50;;;17.60;93.90;;;;;;5094455;28;20481;-67
2021/08/06 06:13:47;;;;;;;2.30;1.37;;;17.60;93.20;;;;;;5093811;28;21800;-67
2021/08/06 06:16:15;;;;;;;2.20;1.10;;;17.70;93.30;;;;;;5093757;28;20492;-67
2021/08/06 06:18:42;;;;;;;3.93;2.23;;;17.70;93.30;;;;;;5094441;28;20521;-67
2021/08/06 06:21:10;;;;;;;2.63;1.60;;;17.80;92.80;;;;;;5093793;28;20431;-68
2021/08/06 06:23:38;;;;;;;7.60;2.20;;;17.80;92.80;;;;;;5093941;28;20437;-66
2021/08/06 06:26:06;;;;;;;2.30;1.67;;;17.90;93.20;;;;;;5094675;28;20565;-66
2021/08/06 06:28:33;;;;;;;7.10;1.40;;;18.10;93.20;;;;;;5090601;28;20442;-68
2021/08/06 06:31:00;;;;;;;3.23;1.97;;;18.30;92.50;;;;;;5093545;28;20511;-69
2021/08/06 06:33:28;;;;;;;3.00;1.50;;;18.40;92.30;;;;;;5093180;28;20418;-67
2021/08/06 06:35:55;;;;;;;7.90;1.50;;;18.50;92.50;;;;;;5093929;28;20542;-67
2021/08/06 06:38:22;;;;;;;2.40;1.20;;;18.50;92.20;;;;;;5094306;28;20522;-67
2021/08/06 06:40:49;;;;;;;7.40;1.70;;;18.50;91.40;;;;;;5093888;28;20477;-67
2021/08/06 06:43:16;;;;;;;2.40;1.60;;;18.50;91.10;;;;;;5094483;28;20443;-67
2021/08/06 06:45:44;;;;;;;2.70;1.40;;;18.40;91.00;;;;;;5093533;28;20479;-68
2021/08/06 06:48:11;;;;;;;3.27;1.37;;;18.40;91.40;;;;;;5092004;28;20443;-67
2021/08/06 06:50:39;;;;;;;2.40;1.40;;;18.40;91.70;;;;;;5096036;28;20569;-67
2021/08/06 06:53:06;;;;;;;3.73;1.70;;;18.50;91.80;;;;;;5096100;28;20526;-67
2021/08/06 06:55:33;;;;;;;3.40;1.83;;;18.50;91.90;;;;;;5093620;28;20480;-66
2021/08/06 06:58:00;;;;;;;3.17;2.00;;;18.50;92.40;;;;;;5095955;28;20478;-67
2021/08/06 07:00:28;;;;;;;2.60;1.60;;;18.50;92.60;;;;;;5095971;28;20843;-67
2021/08/06 07:02:56;;;;;;;2.30;1.60;;;18.50;93.40;;;;;;5095878;28;20521;-67
2021/08/06 07:05:22;;;;;;;3.67;1.53;;;18.50;93.40;;;;;;5095862;28;20852;-67
2021/08/06 07:07:51;;;;;;;3.17;1.90;;;18.50;93.00;;;;;;5095891;28;20523;-67
2021/08/06 07:10:18;;;;;;;2.70;1.77;;;18.40;92.50;;;;;;5095637;28;20525;-67
2021/08/06 07:12:48;;;;;;;2.67;1.63;;;18.30;92.90;;;;;;5095638;28;20469;-67
2021/08/06 07:15:15;;;;;;;6.67;1.87;;;18.20;93.30;;;;;;5095944;28;20467;-67
2021/08/06 07:17:43;;;;;;;3.97;1.80;;;18.20;93.10;;;;;;5095817;28;20832;-67
2021/08/06 07:20:12;;;;;;;2.80;1.77;;;18.20;93.20;;;;;;5095422;28;20438;-66
2021/08/06 07:22:39;;;;;;;3.33;2.10;;;18.20;93.40;;;;;;5095572;28;20872;-67
2021/08/06 07:25:09;;;;;;;3.70;1.77;;;18.20;94.10;;;;;;5095318;28;20498;-67
2021/08/06 07:27:36;;;;;;;3.57;1.70;;;18.20;94.20;;;;;;5095492;28;20446;-67
2021/08/06 07:30:04;;;;;;;3.53;2.10;;;18.10;94.10;;;;;;5095453;28;20470;-67
2021/08/06 07:32:31;;;;;;;3.20;2.40;;;18.10;94.30;;;;;;5095154;28;20518;-67
2021/08/06 07:34:58;;;;;;;8.40;5.50;;;18.10;94.70;;;;;;5095248;28;20522;-68
2021/08/06 07:37:25;;;;;;;10.03;5.93;;;18.10;94.80;;;;;;5095319;28;20526;-68
2021/08/06 07:39:53;;;;;;;3.37;2.37;;;18.00;95.10;;;;;;5095209;28;20438;-67
2021/08/06 07:42:21;;;;;;;3.20;1.67;;;18.00;95.30;;;;;;5095181;28;20530;-67
2021/08/06 07:44:48;;;;;;;3.07;1.80;;;17.90;94.50;;;;;;5095162;28;20474;-67
2021/08/06 07:47:15;;;;;;;2.50;1.73;;;17.90;94.60;;;;;;5095263;28;20439;-67
2021/08/06 07:49:42;;;;;;;3.70;2.00;;;17.90;95.30;;;;;;5095212;28;20431;-67
2021/08/06 07:52:10;;;;;;;3.37;2.27;;;17.90;95.00;;;;;;5094948;28;20487;-67
2021/08/06 07:54:38;;;;;;;2.30;1.50;;;17.90;94.80;;;;;;5095025;28;20443;-67
2021/08/06 07:57:05;;;;;;;4.43;2.20;;;17.80;94.70;;;;;;5094741;28;20965;-67
2021/08/06 07:59:33;;;;;;;4.30;2.00;;;17.70;94.40;;;;;;5094736;28;20525;-66
2021/08/06 08:02:00;;;;;;;6.23;2.33;;;17.70;94.90;;;;;;5094800;28;20493;-69
2021/08/06 08:04:27;;;;;;;4.30;2.13;;;17.70;95.20;;;;;;5093208;28;20522;-67
2021/08/06 08:06:55;;;;;;;3.60;1.83;;;17.70;95.50;;;;;;5094655;28;20992;-68
2021/08/06 08:09:22;;;;;;;4.47;2.00;;;17.70;95.20;;;;;;5094595;28;20513;-68
2021/08/06 08:11:49;;;;;;;4.60;1.70;;;17.80;95.60;;;;;;5094556;28;20846;-68
2021/08/06 08:14:16;;;;;;;3.03;1.80;;;17.80;95.40;;;;;;5094519;28;20527;-67
2021/08/06 08:16:44;;;;;;;3.60;2.27;;;17.90;95.70;;;;;;5094693;28;20435;-67
2021/08/06 08:19:11;;;;;;;4.20;2.67;;;18.00;95.90;;;;;;5094462;28;20537;-67
2021/08/06 08:21:38;;;;;;;4.13;2.00;;;18.10;96.00;;;;;;5094357;28;20960;-66
2021/08/06 08:24:05;;;;;;;4.40;2.10;;;18.30;95.80;;;;;;5094331;28;20431;-67
2021/08/06 08:26:34;;;;;;;3.50;1.97;;;18.50;94.90;;;;;;5094072;28;20540;-67
2021/08/06 08:29:01;;;;;;;4.73;1.90;;;18.60;94.80;;;;;;5094244;28;20435;-67
2021/08/06 08:31:28;;;;;;;4.10;2.03;;;18.90;95.30;;;;;;5093487;28;20921;-67
2021/08/06 08:33:56;;;;;;;3.40;1.80;;;19.10;95.00;;;;;;5094103;28;20522;-67
2021/08/06 08:36:23;;;;;;;3.37;1.43;;;19.40;95.00;;;;;;5094253;28;20474;-67
2021/08/06 08:38:50;;;;;;;3.03;1.63;;;19.50;95.00;;;;;;5094032;28;20514;-67
2021/08/06 08:41:17;;;;;;;2.67;1.67;;;19.70;95.40;;;;;;5094077;28;20513;-68
2021/08/06 08:43:44;;;;;;;2.50;1.60;;;20.20;96.70;;;;;;5094242;28;20518;-69
2021/08/06 08:46:12;;;;;;;2.13;1.40;;;20.70;96.20;;;;;;5094010;28;20530;-67
2021/08/06 08:48:39;;;;;;;2.27;1.43;;;21.10;92.90;;;;;;5094039;28;20530;-67
2021/08/06 08:51:08;;;;;;;2.30;1.40;;;21.40;93.30;;;;;;5093863;28;20506;-67
2021/08/06 08:53:35;;;;;;;2.53;1.23;;;21.70;93.40;;;;;;5093904;28;20858;-67
2021/08/06 08:56:02;;;;;;;2.30;1.93;;;22.00;93.40;;;;;;5092141;28;20847;-67
2021/08/06 08:58:29;;;;;;;3.67;1.73;;;22.20;93.40;;;;;;5093694;28;20476;-67
2021/08/06 09:00:56;;;;;;;2.07;1.03;;;22.40;91.20;;;;;;5093780;28;20475;-67
2021/08/06 09:03:36;;;;;;;1.90;1.00;;;22.60;91.10;;;;;;5093469;28;20977;-67
2021/08/06 09:06:03;;;;;;;2.23;1.13;;;22.90;91.60;;;;;;5093608;28;20434;-67
2021/08/06 09:08:32;;;;;;;3.67;2.40;;;23.10;89.70;;;;;;5093436;28;20518;-67
2021/08/06 09:10:59;;;;;;;4.30;2.20;;;23.30;89.60;;;;;;5093509;28;21043;-67
2021/08/06 09:13:27;;;;;;;1.80;0.90;;;23.40;89.00;;;;;;5093577;28;20466;-68
2021/08/06 09:15:56;;;;;;;3.33;1.47;;;23.40;85.00;;;;;;5093408;28;20518;-68
2021/08/06 09:18:31;;;;;;;4.23;1.40;;;23.70;87.90;;;;;;5093416;28;20926;-67
2021/08/06 09:21:01;;;;;;;3.03;1.70;;;24.00;85.10;;;;;;5093646;28;20852;-67
2021/08/06 09:23:45;;;;;;;3.43;1.40;;;24.50;86.40;;;;;;5093545;28;20515;-71
2021/08/06 09:26:41;;;;;;;2.00;1.13;;;24.70;83.70;;;;;;5093340;28;20568;-67
2021/08/06 09:29:10;;;;;;;2.40;1.77;;;24.80;79.00;;;;;;5093413;28;20462;-67
2021/08/06 09:31:39;;;;;;;2.27;1.40;;;24.70;78.70;;;;;;5093175;28;20583;-67
2021/08/06 09:34:15;;;;;;;2.90;1.40;;;24.60;78.30;;;;;;5093162;28;20528;-67
2021/08/06 09:37:10;;;;;;;3.07;1.90;;;24.60;79.90;;;;;;5093268;28;20524;-68
2021/08/06 09:39:42;;;;;;;2.70;1.40;;;24.70;76.40;;;;;;5079740;28;20535;-67
2021/08/06 09:42:17;;;;;;;2.73;1.57;;;24.80;77.50;;;;;;5094950;28;20441;-67
2021/08/06 09:44:46;;;;;;;3.17;1.53;;;25.20;78.30;;;;;;5097367;28;20822;-68
2021/08/06 09:47:21;;;;;;;2.70;1.17;;;25.50;77.80;;;;;;5097352;28;20521;-68
2021/08/06 09:49:50;;;;;;;2.10;1.30;;;25.60;73.30;;;;;;5097466;28;20538;-68
2021/08/06 09:52:17;;;;;;;2.30;1.30;;;25.80;72.40;;;;;;5097094;28;20616;-67
2021/08/06 09:54:51;;;;;;;3.33;2.00;;;26.20;74.20;;;;;;5097316;28;20949;-67
2021/08/06 09:57:18;;;;;;;3.53;2.53;;;26.40;68.50;;;;;;5097372;28;20532;-68
2021/08/06 09:59:51;;;;;;;2.90;1.43;;;26.30;65.10;;;;;;5097325;28;20439;-67
2021/08/06 10:02:22;;;;;;;2.80;1.57;;;26.30;68.70;;;;;;5097105;28;20438;-67
2021/08/06 10:05:07;;;;;;;2.83;1.53;;;26.40;68.30;;;;;;5097359;28;20431;-67
2021/08/06 10:07:36;;;;;;;2.50;1.50;;;26.70;66.90;;;;;;5097150;28;20427;-68
2021/08/06 10:10:07;;;;;;;2.30;1.40;;;26.80;65.30;;;;;;5096976;28;20855;-67
2021/08/06 10:12:34;;;;;;;3.30;1.93;;;27.00;65.50;;;;;;5096770;28;20482;-68
2021/08/06 10:15:02;;;;;;;2.70;1.70;;;27.40;66.20;;;;;;5096881;28;20526;-68
2021/08/06 10:17:29;;;;;;;4.00;1.83;;;27.60;61.40;;;;;;5096739;28;20470;-69
2021/08/06 10:19:56;;;;;;;2.77;1.20;;;27.70;61.10;;;;;;5096670;28;20438;-68
2021/08/06 10:22:23;;;;;;;2.80;1.43;;;27.90;61.90;;;;;;5096719;28;20862;-68
2021/08/06 10:24:52;;;;;;;2.53;1.30;;;27.90;60.30;;;;;;5096487;28;20505;-67
2021/08/06 10:27:23;;;;;;;2.20;1.10;;;27.80;59.10;;;;;;5096409;28;20523;-68
2021/08/06 10:30:02;;;;;;;3.63;1.67;;;27.40;56.00;;;;;;5096727;28;20515;-67
2021/08/06 10:32:30;;;;;;;9.00;1.87;;;27.20;57.40;;;;;;5094824;28;20474;-68
2021/08/06 10:35:17;;;;;;;4.57;1.60;;;27.20;57.50;;;;;;5096506;28;20530;-67
2021/08/06 10:38:04;;;;;;;2.97;1.57;;;27.10;55.80;;;;;;5096579;28;20449;-69
2021/08/06 10:41:13;;;;;;;5.03;2.80;;;27.00;57.00;;;;;;5096447;28;20445;-67
2021/08/06 10:44:02;;;;;;;4.87;1.80;;;26.80;56.80;;;;;;5096228;28;20431;-67
2021/08/06 10:46:50;;;;;;;2.70;1.53;;;26.60;57.50;;;;;;5096290;28;20439;-67
2021/08/06 10:49:17;;;;;;;4.90;1.70;;;26.60;59.70;;;;;;5096267;28;20463;-67
2021/08/06 10:51:45;;;;;;;2.17;1.20;;;26.80;58.70;;;;;;5096180;28;21031;-68
2021/08/06 10:54:26;;;;;;;4.07;1.47;;;27.00;57.50;;;;;;5095491;28;20492;-67
2021/08/06 10:57:12;;;;;;;2.93;1.30;;;27.10;58.10;;;;;;5096080;28;20922;-68
2021/08/06 10:59:41;;;;;;;2.50;1.27;;;27.20;57.80;;;;;;5096172;28;20941;-67
2021/08/06 11:02:53;;;;;;;3.00;1.70;;;27.00;54.90;;;;;;5095917;28;20489;-67
2021/08/06 11:05:43;;;;;;;3.23;1.80;;;26.90;54.80;;;;;;5096042;28;20779;-67
2021/08/06 11:08:45;;;;;;;5.60;2.00;;;26.80;53.90;;;;;;5095025;28;20467;-67
2021/08/06 11:11:41;;;;;;;2.30;1.20;;;26.60;53.50;;;;;;5095783;28;20435;-71
2021/08/06 11:14:08;;;;;;;5.37;1.70;;;26.20;54.90;;;;;;5075572;28;20440;-67
2021/08/06 11:16:35;;;;;;;4.23;1.90;;;25.90;54.80;;;;;;5075487;28;20522;-67
2021/08/06 11:19:02;;;;;;;2.57;1.40;;;25.70;55.80;;;;;;5088326;28;20463;-67
2021/08/06 11:21:40;;;;;;;3.40;1.40;;;25.60;57.10;;;;;;5095547;28;21012;-67
2021/08/06 11:24:07;;;;;;;2.33;1.03;;;25.50;57.40;;;;;;5091377;28;20538;-67
2021/08/06 11:26:35;;;;;;;5.83;2.17;;;25.40;56.40;;;;;;5094443;28;20462;-68
2021/08/06 11:29:13;;;;;;;2.87;1.13;;;25.30;55.50;;;;;;5095364;28;20525;-67
2021/08/06 11:31:41;;;;;;;3.40;1.37;;;25.30;57.70;;;;;;5077786;28;20439;-68
2021/08/06 11:34:08;;;;;;;2.57;0.87;;;25.30;57.70;;;;;;5095004;28;20434;-68
2021/08/06 11:36:36;;;;;;;4.07;1.70;;;25.30;56.10;;;;;;5094131;28;20522;-67
2021/08/06 11:39:15;;;;;;;4.80;1.30;;;25.20;55.50;;;;;;5089308;28;20842;-69
2021/08/06 11:41:47;;;;;;;2.40;1.40;;;25.30;60.20;;;;;;5094814;28;21015;-67
2021/08/06 11:44:14;;;;;;;2.80;1.33;;;25.40;59.40;;;;;;5094344;28;20525;-67
2021/08/06 11:46:46;;;;;;;2.60;1.40;;;25.60;60.50;;;;;;5094139;28;20449;-67
2021/08/06 11:49:13;;;;;;;2.97;1.40;;;25.70;57.40;;;;;;5094107;28;20517;-67
2021/08/06 11:51:51;;;;;;;6.27;1.13;;;25.80;57.20;;;;;;5094710;28;20438;-70
2021/08/06 11:54:22;;;;;;;2.73;1.37;;;26.00;56.10;;;;;;5094910;28;20777;-67
2021/08/06 11:56:59;;;;;;;3.30;1.33;;;26.20;54.70;;;;;;5086744;28;20875;-69
2021/08/06 11:59:27;;;;;;;5.17;1.70;;;26.30;53.80;;;;;;5094253;28;20525;-67
2021/08/06 12:02:19;;;;;;;6.93;2.00;;;26.40;53.30;;;;;;5094176;28;20431;-68
2021/08/06 12:04:45;;;;;;;4.17;2.40;;;26.40;53.20;;;;;;5093304;28;20754;-68
2021/08/06 12:07:13;;;;;;;9.47;1.80;;;26.40;54.20;;;;;;5093607;28;20481;-67
2021/08/06 12:09:47;;;;;;;3.40;1.50;;;26.30;53.60;;;;;;5092355;28;20447;-67
2021/08/06 12:12:14;;;;;;;4.33;1.60;;;26.30;53.70;;;;;;5094234;28;20486;-67
2021/08/06 12:14:41;;;;;;;5.60;1.30;;;26.20;52.80;;;;;;5094551;28;20443;-68
2021/08/06 12:17:18;;;;;;;3.37;1.20;;;26.30;54.20;;;;;;5094574;28;20996;-67
2021/08/06 12:19:47;;;;;;;3.37;1.53;;;26.20;54.10;;;;;;5094440;28;20431;-68
2021/08/06 12:22:15;;;;;;;2.20;1.40;;;26.20;55.40;;;;;;5094275;28;20477;-68
2021/08/06 12:24:42;;;;;;;2.23;1.50;;;26.30;54.50;;;;;;5093266;28;20438;-67
2021/08/06 12:27:10;;;;;;;5.10;1.60;;;26.30;52.90;;;;;;5094224;28;20475;-68
2021/08/06 12:29:39;;;;;;;4.07;1.80;;;26.40;52.40;;;;;;5094354;28;20864;-67
2021/08/06 12:32:11;;;;;;;2.50;1.37;;;26.40;53.50;;;;;;5093995;28;20508;-70
2021/08/06 12:34:39;;;;;;;6.13;1.40;;;26.30;53.70;;;;;;5094157;28;20534;-67
2021/08/06 12:37:08;;;;;;;3.20;1.37;;;26.30;54.80;;;;;;5094220;28;20765;-67
2021/08/06 12:39:36;;;;;;;3.00;1.30;;;26.40;56.60;;;;;;5093474;28;20936;-67
2021/08/06 12:42:13;;;;;;;2.00;1.00;;;26.50;56.30;;;;;;5093558;28;20525;-67
2021/08/06 12:44:41;;;;;;;2.63;1.10;;;26.50;55.50;;;;;;5093948;28;20431;-67
2021/08/06 12:47:12;;;;;;;3.00;1.30;;;26.50;54.70;;;;;;5093612;28;20478;-68
2021/08/06 12:49:42;;;;;;;4.50;1.70;;;26.50;54.70;;;;;;5092545;28;20534;-67
2021/08/06 12:52:11;;;;;;;4.77;1.37;;;26.50;54.20;;;;;;5073053;28;20562;-67
2021/08/06 12:54:47;;;;;;;3.80;1.23;;;26.40;53.40;;;;;;5073522;28;20826;-68
2021/08/06 12:57:18;;;;;;;5.50;1.30;;;26.30;53.90;;;;;;5073724;28;20518;-69
2021/08/06 12:59:45;;;;;;;5.20;1.20;;;26.30;55.10;;;;;;5073407;28;20986;-68
2021/08/06 13:02:17;;;;;;;2.57;1.10;;;26.30;54.60;;;;;;5073595;28;20448;-67